Time;durP1;ratioP1;P1;durP2;ratioP2;P2;SDS_P1;SDS_P2;PMS_P1;PMS_P2;Temp;Humidity;BMP_temperature;BMP_pressure;BME280_temperature;BME280_humidity;BME280_pressure;Samples;Min_cycle;Max_cycle;Signal;HPM_P1;HPM_P2
2022/05/12 00:00:57;;;;;;;12.53;3.30;;;;;;;17.37;100.00;99993.34;5231442;28;20124;-77
2022/05/12 00:03:28;;;;;;;9.25;3.40;;;;;;;17.27;100.00;99997.56;5223206;28;20275;-76
2022/05/12 00:05:58;;;;;;;9.40;3.47;;;;;;;17.16;100.00;100000.13;5235319;28;20675;-76
2022/05/12 00:08:28;;;;;;;6.72;3.33;;;;;;;17.17;100.00;99991.25;5232037;28;20036;-77
2022/05/12 00:10:59;;;;;;;9.40;3.53;;;;;;;17.17;100.00;99980.69;5234856;28;20032;-77
2022/05/12 00:13:29;;;;;;;8.37;3.40;;;;;;;17.12;100.00;99977.56;5232266;28;20033;-77
2022/05/12 00:15:59;;;;;;;8.13;3.10;;;;;;;17.10;100.00;99975.00;5235187;28;20271;-77
2022/05/12 00:18:29;;;;;;;9.23;3.47;;;;;;;17.14;100.00;99973.81;5232121;28;20059;-77
2022/05/12 00:21:00;;;;;;;6.50;3.05;;;;;;;17.12;100.00;99974.91;5235096;28;20028;-77
2022/05/12 00:23:30;;;;;;;12.10;3.42;;;;;;;17.14;100.00;99973.81;5232033;28;20025;-76
2022/05/12 00:26:00;;;;;;;9.95;4.03;;;;;;;17.05;100.00;99979.78;5217520;28;20527;-76
2022/05/12 00:28:31;;;;;;;10.18;3.42;;;;;;;17.13;100.00;99984.50;5215643;28;20116;-76
2022/05/12 00:31:01;;;;;;;9.13;3.55;;;;;;;17.15;100.00;99988.72;5224985;28;20078;-76
2022/05/12 00:33:31;;;;;;;8.05;3.42;;;;;;;17.02;100.00;99981.78;5222884;28;20047;-76
2022/05/12 00:36:02;;;;;;;9.40;3.60;;;;;;;16.94;100.00;99969.13;5234694;28;20487;-77
2022/05/12 00:38:32;;;;;;;7.70;3.47;;;;;;;16.96;100.00;99983.06;5231339;28;20305;-78
2022/05/12 00:41:02;;;;;;;8.50;3.58;;;;;;;16.89;100.00;99999.44;5234026;28;20101;-77
2022/05/12 00:43:43;;;;;;;9.98;3.78;;;;;;;16.88;100.00;100032.06;5230951;28;20037;-77
2022/05/12 00:46:16;;;;;;;12.10;3.95;;;;;;;16.69;100.00;100041.38;5229366;28;20028;-77
2022/05/12 00:48:48;;;;;;;9.55;3.60;;;;;;;16.75;100.00;100038.31;5233184;28;20047;-77
2022/05/12 00:51:27;;;;;;;10.95;3.70;;;;;;;16.78;100.00;100057.44;5232887;28;20068;-76
2022/05/12 00:54:01;;;;;;;6.40;3.60;;;;;;;16.80;100.00;100076.66;5229352;28;20032;-76
2022/05/12 00:56:33;;;;;;;12.02;4.10;;;;;;;16.74;100.00;100058.56;5224511;28;20027;-77
2022/05/12 00:59:10;;;;;;;10.45;4.45;;;;;;;16.57;100.00;100048.31;5226818;28;20023;-78
2022/05/12 01:01:40;;;;;;;8.88;4.00;;;;;;;16.61;100.00;100041.06;5225250;28;20100;-77
2022/05/12 01:04:10;;;;;;;12.05;4.30;;;;;;;16.66;100.00;100038.94;5225983;28;20177;-77
2022/05/12 01:06:40;;;;;;;11.25;4.20;;;;;;;16.56;100.00;100059.81;5231804;28;20067;-79
2022/05/12 01:09:12;;;;;;;10.10;4.93;;;;;;;16.69;100.00;100057.22;5233621;28;20020;-79
2022/05/12 01:11:42;;;;;;;9.48;4.47;;;;;;;16.35;100.00;100052.53;5231436;28;20272;-76
2022/05/12 01:14:13;;;;;;;9.95;4.00;;;;;;;16.26;100.00;100043.44;5233329;28;20028;-78
2022/05/12 01:16:52;;;;;;;12.32;4.00;;;;;;;16.50;100.00;100068.16;5231643;28;20025;-76
2022/05/12 01:19:26;;;;;;;11.00;3.97;;;;;;;16.44;100.00;100083.56;5232658;28;20028;-76
2022/05/12 01:21:58;;;;;;;12.40;4.43;;;;;;;16.54;100.00;100077.56;5233582;28;20024;-76
2022/05/12 01:24:38;;;;;;;8.18;4.30;;;;;;;16.28;100.00;100093.41;5227893;28;20502;-77
2022/05/12 01:27:19;;;;;;;12.88;4.50;;;;;;;16.37;100.00;100077.03;5222058;28;20032;-77
2022/05/12 01:29:55;;;;;;;12.85;4.57;;;;;;;16.21;100.00;100082.41;5232239;28;20415;-78
2022/05/12 01:32:27;;;;;;;;;;;;;;;16.27;100.00;100086.44;5221915;28;20035;-78
2022/05/12 01:34:57;;;;;;;10.25;4.43;;;;;;;15.99;100.00;100076.03;5229475;28;20315;-76
2022/05/12 01:37:27;;;;;;;9.60;4.13;;;;;;;15.95;100.00;100069.25;5230608;28;20024;-80
2022/05/12 01:39:58;;;;;;;9.73;4.28;;;;;;;16.07;100.00;100069.28;5233663;28;20028;-78
2022/05/12 01:42:28;;;;;;;9.17;3.80;;;;;;;16.09;100.00;100072.72;5225889;28;20036;-77
2022/05/12 01:44:58;;;;;;;8.93;4.18;;;;;;;15.95;100.00;100075.41;5226099;28;20282;-77
2022/05/12 01:47:29;;;;;;;9.50;4.27;;;;;;;15.98;100.00;100072.56;5230552;28;20048;-77
2022/05/12 01:49:59;;;;;;;11.68;4.45;;;;;;;16.03;100.00;100078.34;5233462;28;20350;-77
2022/05/12 01:52:30;;;;;;;9.83;4.30;;;;;;;16.06;100.00;100077.31;5229915;28;20170;-76
2022/05/12 01:55:00;;;;;;;9.30;4.35;;;;;;;15.97;100.00;100077.91;5226938;28;20274;-80
2022/05/12 01:57:30;;;;;;;11.80;4.70;;;;;;;15.92;100.00;100096.69;5226593;28;20055;-78
2022/05/12 02:00:01;;;;;;;10.00;3.90;;;;;;;15.75;100.00;100096.94;5233496;28;20266;-76
2022/05/12 02:02:31;;;;;;;9.05;4.50;;;;;;;15.81;100.00;100093.03;5229623;28;20658;-76
2022/05/12 02:05:01;;;;;;;10.20;4.43;;;;;;;15.78;100.00;100103.78;5233901;28;20107;-76
2022/05/12 02:07:33;;;;;;;9.30;3.97;;;;;;;15.83;100.00;100105.19;5229903;28;20063;-76
2022/05/12 02:10:06;;;;;;;12.07;4.00;;;;;;;15.78;100.00;100111.69;5233824;28;20071;-76
2022/05/12 02:12:37;;;;;;;8.63;4.00;;;;;;;15.79;100.00;100101.06;5223068;28;20025;-78
2022/05/12 02:15:08;;;;;;;7.55;3.90;;;;;;;15.64;100.00;100102.03;5228610;28;20043;-77
2022/05/12 02:17:39;;;;;;;9.20;3.83;;;;;;;15.78;100.00;100101.13;5234497;28;20580;-75
2022/05/12 02:20:11;;;;;;;9.10;3.10;;;;;;;15.85;100.00;100113.81;5237242;28;20020;-79
2022/05/12 02:22:42;;;;;;;10.75;3.22;;;;;;;15.62;100.00;100116.22;5234633;28;20025;-78
2022/05/12 02:25:12;;;;;;;9.13;2.80;;;;;;;15.49;100.00;100125.84;5229599;28;20036;-79
2022/05/12 02:27:45;;;;;;;7.35;2.47;;;;;;;15.53;100.00;100132.63;5229284;28;20032;-76
2022/05/12 02:30:25;;;;;;;7.00;2.20;;;;;;;15.44;100.00;100141.94;5235748;28;20044;-77
2022/05/12 02:32:55;;;;;;;6.70;2.13;;;;;;;15.43;100.00;100135.00;5236441;28;20670;-77
2022/05/12 02:35:28;;;;;;;5.43;2.10;;;;;;;15.40;100.00;100144.88;5234479;28;20041;-78
2022/05/12 02:37:58;;;;;;;7.05;1.98;;;;;;;15.36;100.00;100138.09;5236352;28;20612;-77
2022/05/12 02:40:28;;;;;;;7.28;2.03;;;;;;;15.32;100.00;100137.44;5233700;28;20032;-76
2022/05/12 02:42:59;;;;;;;5.80;2.22;;;;;;;15.45;100.00;100135.75;5230507;28;20060;-76
2022/05/12 02:45:29;;;;;;;8.40;2.20;;;;;;;15.36;100.00;100133.66;5230201;28;20028;-78
2022/05/12 02:47:59;;;;;;;6.63;2.15;;;;;;;15.33;100.00;100141.75;5236781;28;20035;-77
2022/05/12 02:50:30;;;;;;;5.75;2.47;;;;;;;15.26;100.00;100152.72;5233107;28;20039;-79
2022/05/12 02:53:00;;;;;;;4.35;1.88;;;;;;;15.26;100.00;100153.59;5236464;28;20016;-78
2022/05/12 02:55:30;;;;;;;4.43;1.90;;;;;;;15.28;100.00;100167.50;5227167;28;20390;-78
2022/05/12 02:58:00;;;;;;;6.47;2.28;;;;;;;15.18;100.00;100169.00;5233455;28;20263;-76
2022/05/12 03:00:33;;;;;;;6.33;2.07;;;;;;;15.12;100.00;100161.47;5233634;28;20032;-77
2022/05/12 03:03:05;;;;;;;5.63;1.92;;;;;;;15.01;100.00;100192.00;5228752;28;20311;-76
2022/05/12 03:05:38;;;;;;;4.97;1.92;;;;;;;14.96;100.00;100194.91;5237121;28;20485;-76
2022/05/12 03:08:09;;;;;;;6.65;1.48;;;;;;;14.86;100.00;100201.66;5236099;28;20028;-76
2022/05/12 03:10:39;;;;;;;4.53;1.30;;;;;;;14.73;99.47;100214.78;5233306;28;20075;-77
2022/05/12 03:13:09;;;;;;;5.95;1.10;;;;;;;14.66;97.83;100229.22;5228145;28;20028;-77
2022/05/12 03:15:40;;;;;;;2.73;1.30;;;;;;;14.58;97.45;100228.81;5230055;28;20032;-77
2022/05/12 03:18:11;;;;;;;4.88;1.27;;;;;;;14.38;97.69;100242.22;5235416;28;20354;-76
2022/05/12 03:20:41;;;;;;;7.65;1.38;;;;;;;14.36;97.82;100257.25;5233373;28;20044;-78
2022/05/12 03:23:13;;;;;;;2.70;0.98;;;;;;;14.31;97.38;100264.53;5235238;28;20485;-77
2022/05/12 03:25:44;;;;;;;5.22;1.10;;;;;;;14.25;96.56;100270.97;5222010;28;20107;-77
2022/05/12 03:28:15;;;;;;;2.33;1.00;;;;;;;14.17;95.62;100280.22;5232095;28;20024;-77
2022/05/12 03:30:45;;;;;;;3.50;0.80;;;;;;;14.08;95.55;100301.72;5233527;28;20398;-77
2022/05/12 03:33:15;;;;;;;3.50;1.00;;;;;;;13.94;95.39;100301.63;5234776;28;20031;-77
2022/05/12 03:35:46;;;;;;;4.80;1.20;;;;;;;13.81;95.00;100305.81;5233157;28;20538;-77
2022/05/12 03:38:16;;;;;;;5.55;1.08;;;;;;;13.79;95.91;100312.94;5234438;28;20024;-76
2022/05/12 03:40:47;;;;;;;4.55;0.80;;;;;;;13.66;96.06;100314.50;5233439;28;20493;-76
2022/05/12 03:46:07;;;;;;;4.40;1.00;;;;;;;13.61;96.62;100337.53;5227872;28;20070;-77
2022/05/12 03:48:39;;;;;;;2.70;0.70;;;;;;;13.49;96.85;100343.41;5232268;28;20116;-76
2022/05/12 03:51:10;;;;;;;6.90;1.02;;;;;;;13.44;96.65;100346.25;5235081;28;20093;-76
2022/05/12 03:53:40;;;;;;;3.83;0.85;;;;;;;13.51;96.71;100354.69;5231369;28;20547;-77
2022/05/12 03:56:11;;;;;;;5.78;1.23;;;;;;;13.54;96.85;100360.63;5224216;28;20040;-77
2022/05/12 03:58:41;;;;;;;3.25;1.10;;;;;;;13.48;96.64;100373.22;5232672;28;20029;-76
2022/05/12 04:01:11;;;;;;;4.30;0.90;;;;;;;13.41;95.93;100374.47;5234609;28;20150;-76
2022/05/12 04:03:41;;;;;;;2.25;0.77;;;;;;;13.57;96.40;100380.66;5236095;22;20471;-77
2022/05/12 04:06:12;;;;;;;2.28;0.88;;;;;;;13.45;96.16;100387.38;5206464;28;20423;-78
2022/05/12 04:08:42;;;;;;;4.35;1.10;;;;;;;13.52;96.50;100401.00;5214762;28;20025;-78
2022/05/12 04:11:12;;;;;;;3.42;1.00;;;;;;;13.49;96.36;100399.41;5211452;28;20625;-77
2022/05/12 04:13:44;;;;;;;5.85;1.30;;;;;;;13.63;96.37;100403.94;5208802;28;20033;-78
2022/05/12 04:16:15;;;;;;;3.83;1.08;;;;;;;13.69;95.70;100417.63;5213261;28;20052;-78
2022/05/12 04:18:45;;;;;;;8.23;1.38;;;;;;;13.68;95.00;100415.06;5219824;28;20032;-78
2022/05/12 04:21:16;;;;;;;3.55;1.00;;;;;;;13.73;94.92;100416.53;5217961;28;20413;-78
2022/05/12 04:23:46;;;;;;;4.65;1.00;;;;;;;13.89;93.85;100420.09;5199039;28;20345;-79
2022/05/12 04:26:16;;;;;;;3.20;0.97;;;;;;;13.80;94.08;100423.19;5209337;28;20029;-78
2022/05/12 04:28:47;;;;;;;2.55;0.75;;;;;;;13.73;94.40;100432.28;5217586;28;20298;-78
2022/05/12 04:31:17;;;;;;;3.33;0.77;;;;;;;13.71;94.09;100441.19;5216441;28;20086;-78
2022/05/12 04:36:36;;;;;;;1.67;0.75;;;;;;;13.83;93.39;100449.31;5208024;28;20359;-76
2022/05/12 04:39:07;;;;;;;2.97;0.93;;;;;;;14.97;86.35;100456.28;5201155;28;20455;-78
2022/05/12 04:41:38;;;;;;;2.67;0.75;;;;;;;15.22;85.19;100457.47;5213025;28;20052;-78
2022/05/12 04:44:08;;;;;;;3.50;0.82;;;;;;;14.74;86.52;100469.03;5205341;28;20056;-78
2022/05/12 04:46:40;;;;;;;4.47;0.90;;;;;;;14.10;89.54;100471.53;5216010;28;20025;-77
2022/05/12 04:49:13;;;;;;;2.25;0.90;;;;;;;13.90;89.93;100484.00;5200157;28;20025;-78
2022/05/12 04:51:43;;;;;;;2.95;0.75;;;;;;;13.77;91.26;100494.25;5195100;28;20120;-78
2022/05/12 04:54:14;;;;;;;3.43;0.93;;;;;;;13.63;91.94;100506.38;5211864;28;20109;-78
2022/05/12 04:56:44;;;;;;;3.28;0.95;;;;;;;13.64;92.50;100514.19;5207143;28;20268;-78
2022/05/12 04:59:15;;;;;;;6.13;0.98;;;;;;;13.30;93.38;100526.38;5215352;28;20033;-78
2022/05/12 05:01:45;;;;;;;1.77;0.60;;;;;;;13.43;94.71;100523.09;5199228;28;20123;-78
2022/05/12 05:04:15;;;;;;;1.83;0.63;;;;;;;13.70;93.13;100531.41;5197125;28;20025;-78
2022/05/12 05:06:46;;;;;;;4.43;0.85;;;;;;;15.24;87.93;100523.22;5198535;28;20033;-79
2022/05/12 05:09:16;;;;;;;2.95;0.88;;;;;;;16.15;81.55;100531.09;5196906;28;20025;-79
2022/05/12 05:11:46;;;;;;;2.90;0.90;;;;;;;17.64;75.48;100544.59;5213951;28;20026;-79
2022/05/12 05:14:17;;;;;;;4.03;1.10;;;;;;;17.76;74.53;100546.44;5205839;28;20096;-79
2022/05/12 05:16:47;;;;;;;2.53;0.80;;;;;;;19.49;69.67;100545.81;5212135;28;20029;-79
2022/05/12 05:19:18;;;;;;;3.95;0.80;;;;;;;20.49;66.30;100542.66;5196886;28;20029;-79
2022/05/12 05:21:48;;;;;;;3.10;0.90;;;;;;;18.71;70.43;100548.75;5214890;28;20021;-79
2022/05/12 05:24:18;;;;;;;1.77;0.80;;;;;;;17.77;72.75;100563.16;5209649;28;20041;-79
2022/05/12 05:26:49;;;;;;;4.17;0.90;;;;;;;17.24;74.87;100570.97;5204295;28;20049;-79
2022/05/12 05:29:19;;;;;;;3.88;0.75;;;;;;;18.28;74.26;100570.31;5194590;28;20287;-79
2022/05/12 05:31:49;;;;;;;3.00;0.82;;;;;;;19.16;69.47;100572.03;5213672;28;20087;-80
2022/05/12 05:34:20;;;;;;;4.60;1.00;;;;;;;17.05;73.50;100600.34;5199517;28;20035;-79
2022/05/12 05:36:50;;;;;;;3.50;0.80;;;;;;;17.18;75.74;100600.44;5212948;28;20258;-79
2022/05/12 05:39:26;;;;;;;5.00;1.10;;;;;;;16.55;77.49;100599.06;5195465;28;20029;-79
2022/05/12 05:42:04;;;;;;;1.55;0.80;;;;;;;16.01;77.70;100599.59;5194533;28;20497;-78
2022/05/12 05:44:35;;;;;;;3.78;0.90;;;;;;;17.00;76.22;100607.69;5204897;28;20490;-79
2022/05/12 05:47:05;;;;;;;4.22;1.23;;;;;;;16.74;77.44;100612.84;5211487;28;20229;-78
2022/05/12 05:49:37;;;;;;;3.55;1.05;;;;;;;17.08;75.63;100628.34;5213586;28;20418;-79
2022/05/12 05:54:57;;;;;;;2.08;0.80;;;;;;;18.59;70.82;100622.91;5205620;28;20036;-77
2022/05/12 05:57:33;;;;;;;2.75;0.80;;;;;;;17.45;73.92;100633.94;5205939;28;20017;-78
2022/05/12 06:00:06;;;;;;;3.33;1.00;;;;;;;17.28;75.84;100638.56;5213648;28;20036;-78
2022/05/12 06:02:36;;;;;;;3.67;1.13;;;;;;;18.05;72.27;100642.41;5205360;28;20083;-77
2022/05/12 06:05:07;;;;;;;1.80;0.85;;;;;;;17.26;74.90;100645.69;5212741;28;20037;-77
2022/05/12 06:07:39;;;;;;;3.33;1.23;;;;;;;18.32;72.31;100652.06;5209429;28;20025;-77
2022/05/12 06:10:11;;;;;;;3.83;1.00;;;;;;;18.10;72.06;100656.16;5209502;28;20021;-77
2022/05/12 06:12:41;;;;;;;4.53;1.02;;;;;;;17.56;72.92;100659.69;5205691;28;20029;-77
2022/05/12 06:15:13;;;;;;;3.28;1.00;;;;;;;17.75;73.13;100662.88;5207122;28;20031;-77
2022/05/12 06:17:43;;;;;;;4.30;1.25;;;;;;;17.71;73.38;100664.88;5213108;28;20036;-78
2022/05/12 06:20:14;;;;;;;3.17;0.90;;;;;;;18.84;69.92;100661.72;5214573;28;20024;-78
2022/05/12 06:22:44;;;;;;;1.88;0.65;;;;;;;19.36;68.54;100673.09;5213633;28;20040;-78
2022/05/12 06:25:16;;;;;;;3.85;1.00;;;;;;;19.27;68.09;100675.53;5208159;28;20030;-78
2022/05/12 06:27:47;;;;;;;2.45;0.80;;;;;;;19.07;68.14;100684.81;5211476;28;20106;-78
2022/05/12 06:30:17;;;;;;;4.90;1.10;;;;;;;18.15;68.66;100696.41;5197609;28;20509;-78
2022/05/12 06:32:48;;;;;;;2.35;0.70;;;;;;;18.00;70.20;100702.69;5197511;28;20032;-79
2022/05/12 06:35:20;;;;;;;2.08;0.68;;;;;;;19.39;67.71;100707.34;5196868;28;20112;-78
2022/05/12 06:37:51;;;;;;;2.67;0.60;;;;;;;20.54;65.40;100703.34;5212860;28;20384;-78
2022/05/12 06:40:22;;;;;;;3.80;0.80;;;;;;;19.89;64.96;100714.38;5214134;28;20036;-78
2022/05/12 06:42:53;;;;;;;3.15;0.80;;;;;;;19.27;67.16;100702.88;5192518;28;20056;-77
2022/05/12 06:45:23;;;;;;;1.85;0.63;;;;;;;20.07;65.40;100708.63;5208614;28;20033;-78
2022/05/12 06:47:54;;;;;;;2.33;0.60;;;;;;;19.59;65.00;100719.22;5213979;28;20086;-78
2022/05/12 06:50:27;;;;;;;2.80;0.80;;;;;;;19.26;66.75;100719.75;5195601;28;20060;-78
2022/05/12 06:52:58;;;;;;;3.42;0.90;;;;;;;18.73;68.82;100725.13;5215820;28;20263;-79
2022/05/12 06:55:29;;;;;;;2.30;0.68;;;;;;;19.50;66.66;100726.00;5188679;28;20475;-78
2022/05/12 06:58:00;;;;;;;2.25;0.73;;;;;;;18.76;67.46;100735.53;5211543;28;20442;-78
2022/05/12 07:00:30;;;;;;;2.10;0.68;;;;;;;18.29;67.91;100744.88;5210500;28;20022;-77
2022/05/12 07:03:00;;;;;;;2.85;0.60;;;;;;;17.07;73.76;100753.41;5218195;28;20025;-78
2022/05/12 07:05:31;;;;;;;1.58;0.75;;;;;;;17.24;73.49;100758.53;5197292;28;20107;-77
2022/05/12 07:08:01;;;;;;;2.90;0.70;;;;;;;17.95;70.76;100761.16;5216310;28;20060;-77
2022/05/12 07:10:32;;;;;;;2.70;0.70;;;;;;;20.06;65.43;100764.47;5212270;28;20749;-78
2022/05/12 07:13:04;;;;;;;3.50;0.77;;;;;;;20.53;64.26;100759.22;5210410;28;20779;-78
2022/05/12 07:15:34;;;;;;;2.63;0.80;;;;;;;21.08;63.47;100755.88;5210736;28;20107;-79
2022/05/12 07:18:05;;;;;;;3.22;0.70;;;;;;;22.63;60.80;100757.63;5216061;28;20524;-79
2022/05/12 07:29:04;;;;;;;2.30;0.70;;;;;;;23.85;56.18;100777.41;5213389;28;20025;-78
2022/05/12 07:31:34;;;;;;;1.55;0.80;;;;;;;22.82;57.78;100784.47;5229016;28;20025;-78
2022/05/12 07:34:05;;;;;;;3.92;1.00;;;;;;;23.32;56.58;100789.97;5214130;28;20033;-78
2022/05/12 07:36:39;;;;;;;3.20;0.82;;;;;;;21.44;61.21;100802.75;5217718;28;20024;-78
2022/05/12 07:39:12;;;;;;;3.85;1.10;;;;;;;20.20;63.84;100810.31;5196649;28;20519;-79
2022/05/12 07:41:42;;;;;;;3.03;0.77;;;;;;;19.63;64.53;100806.41;5216708;28;20029;-78
2022/05/12 07:44:14;;;;;;;3.50;0.90;;;;;;;19.05;66.65;100816.56;5207484;28;20425;-80
2022/05/12 07:46:46;;;;;;;4.63;1.05;;;;;;;18.54;68.48;100820.91;5217761;28;20028;-80
2022/05/12 07:49:17;;;;;;;2.72;1.00;;;;;;;19.60;66.14;100811.91;5213818;28;20110;-80
2022/05/12 07:51:47;;;;;;;3.10;1.10;;;;;;;20.68;63.10;100804.97;5216666;28;20024;-80
2022/05/12 07:54:18;;;;;;;3.75;1.00;;;;;;;20.18;64.02;100820.22;5211887;28;20041;-81
2022/05/12 07:56:48;;;;;;;4.20;1.05;;;;;;;19.25;66.77;100818.75;5187229;28;20383;-80
2022/05/12 07:59:18;;;;;;;2.13;0.90;;;;;;;19.47;66.90;100829.59;5206945;28;20025;-80
2022/05/12 08:01:49;;;;;;;5.65;0.90;;;;;;;20.50;63.40;100836.47;5214033;28;20549;-81
2022/05/12 08:04:19;;;;;;;5.32;1.10;;;;;;;21.07;62.01;100841.06;5215280;28;20022;-80
2022/05/12 08:06:49;;;;;;;4.10;1.10;;;;;;;21.94;60.22;100835.16;5215663;28;20104;-81
2022/05/12 08:09:20;;;;;;;2.53;0.80;;;;;;;21.55;59.78;100842.69;5198341;28;20061;-81
2022/05/12 08:11:50;;;;;;;5.35;0.90;;;;;;;22.17;59.53;100844.88;5214771;28;20680;-80
2022/05/12 08:14:21;;;;;;;4.17;1.00;;;;;;;21.22;61.66;100846.09;5215566;28;20731;-80
2022/05/12 08:16:51;;;;;;;4.28;1.00;;;;;;;20.06;65.92;100855.56;5214902;28;20282;-80
2022/05/12 08:19:22;;;;;;;3.55;0.80;;;;;;;19.20;67.08;100860.63;5215820;28;20030;-80
2022/05/12 08:21:53;;;;;;;3.03;0.88;;;;;;;21.57;62.59;100848.75;5217085;28;20029;-80
2022/05/12 08:24:23;;;;;;;5.50;1.10;;;;;;;21.87;59.92;100851.72;5211384;28;20055;-80
2022/05/12 08:26:53;;;;;;;3.23;0.83;;;;;;;20.29;61.78;100859.25;5206104;28;20152;-80
2022/05/12 08:29:23;;;;;;;6.50;1.17;;;;;;;20.49;62.79;100864.81;5210366;28;20482;-79
2022/05/12 08:31:54;;;;;;;5.43;1.08;;;;;;;21.61;60.74;100860.84;5216955;28;20036;-80
2022/05/12 08:34:24;;;;;;;2.87;0.80;;;;;;;21.41;61.60;100861.50;5215009;28;20372;-80
2022/05/12 08:36:54;;;;;;;7.83;1.00;;;;;;;20.50;65.11;100871.84;5198129;28;20401;-80
2022/05/12 08:39:24;;;;;;;2.10;0.90;;;;;;;21.11;62.58;100872.63;5215185;28;20267;-80
2022/05/12 08:41:59;;;;;;;4.25;1.00;;;;;;;19.72;63.07;100877.38;5198261;28;20826;-80
2022/05/12 08:44:34;;;;;;;6.38;1.10;;;;;;;20.14;62.97;100877.09;5196515;28;20025;-80
2022/05/12 08:47:10;;;;;;;4.18;0.90;;;;;;;20.01;63.94;100886.84;5191086;28;20033;-80
2022/05/12 08:49:59;;;;;;;;;;;;;;;19.83;65.24;100884.63;5214980;28;20107;-79
2022/05/12 08:52:46;;;;;;;4.47;1.10;;;;;;;20.88;63.61;100875.28;5214735;28;20023;-80
2022/05/12 08:55:23;;;;;;;4.72;0.90;;;;;;;22.40;60.54;100877.72;5186117;28;20029;-82
2022/05/12 08:58:05;;;;;;;5.28;1.48;;;;;;;22.93;59.53;100873.28;5204203;28;20416;-81
2022/05/12 09:00:44;;;;;;;3.33;1.00;;;;;;;23.82;57.36;100868.38;5194355;28;20036;-81
2022/05/12 09:03:42;;;;;;;3.70;1.00;;;;;;;21.80;58.70;100877.13;5213818;28;20061;-80
2022/05/12 09:06:19;;;;;;;2.58;0.90;;;;;;;20.73;63.20;100879.03;5209622;28;20032;-81
2022/05/12 09:08:58;;;;;;;5.15;1.08;;;;;;;21.69;62.14;100877.97;5213726;28;20471;-81
2022/05/12 09:11:50;;;;;;;2.72;0.88;;;;;;;23.01;57.74;100873.47;5215538;28;20055;-81
2022/05/12 09:14:39;;;;;;;4.93;1.00;;;;;;;21.75;60.27;100876.66;5194449;28;20037;-80
2022/05/12 09:17:19;;;;;;;3.30;0.95;;;;;;;21.55;59.21;100879.94;5191188;28;20432;-82
2022/05/12 09:19:49;;;;;;;3.33;0.90;;;;;;;21.27;59.42;100877.66;5214112;28;20044;-81
2022/05/12 09:22:29;;;;;;;4.45;0.80;;;;;;;21.51;59.52;100867.81;5213777;28;20029;-81
2022/05/12 09:24:59;;;;;;;4.05;0.90;;;;;;;21.17;60.14;100871.31;5206232;28;20037;-81
2022/05/12 09:27:35;;;;;;;2.95;0.75;;;;;;;20.55;63.08;100882.13;5205610;28;20047;-81
2022/05/12 09:30:11;;;;;;;4.93;0.85;;;;;;;20.47;62.98;100885.34;5207747;28;20029;-80
2022/05/12 09:32:42;;;;;;;5.05;1.00;;;;;;;20.36;63.99;100893.25;5214650;28;20356;-81
2022/05/12 09:35:21;;;;;;;3.03;0.80;;;;;;;20.10;63.56;100891.56;5213161;28;20039;-81
2022/05/12 09:37:52;;;;;;;3.65;0.93;;;;;;;21.37;60.30;100881.34;5214031;28;20102;-80
2022/05/12 09:40:34;;;;;;;2.97;0.70;;;;;;;21.77;59.35;100882.69;5214652;28;20066;-80
2022/05/12 09:43:32;;;;;;;4.30;1.00;;;;;;;21.48;59.17;100878.69;5208293;28;20035;-81
2022/05/12 09:46:02;;;;;;;2.40;0.70;;;;;;;21.42;60.52;100872.03;5211610;28;20356;-79
2022/05/12 09:48:37;;;;;;;3.73;0.90;;;;;;;20.82;61.16;100883.66;5215573;28;20021;-81
2022/05/12 09:51:21;;;;;;;4.75;1.00;;;;;;;21.47;60.66;100869.03;5208093;28;20643;-80
2022/05/12 09:53:55;;;;;;;3.95;1.20;;;;;;;22.15;60.36;100872.56;5192525;28;20037;-80
2022/05/12 09:56:34;;;;;;;1.58;0.68;;;;;;;22.32;57.47;100875.63;5186451;28;20029;-79
2022/05/12 09:59:14;;;;;;;5.22;0.73;;;;;;;22.04;56.66;100872.56;5202180;28;20206;-80
2022/05/12 10:01:57;;;;;;;2.92;0.80;;;;;;;21.41;59.61;100880.13;5194878;28;20029;-80
2022/05/12 10:10:26;;;;;;;3.58;0.90;;;;;;;21.45;60.83;100873.63;5223491;28;20462;-77
2022/05/12 10:13:30;;;;;;;2.88;0.90;;;;;;;21.52;60.03;100875.69;5222698;28;20093;-76
2022/05/12 10:16:01;;;;;;;4.00;0.88;;;;;;;21.55;61.45;100875.47;5207109;28;20100;-77
2022/05/12 10:18:42;;;;;;;2.80;0.85;;;;;;;21.90;60.52;100878.97;5223567;28;20032;-76
2022/05/12 10:21:20;;;;;;;3.13;0.98;;;;;;;21.71;59.98;100872.53;5220666;28;20022;-77
2022/05/12 10:23:59;;;;;;;3.47;0.90;;;;;;;20.59;60.32;100884.47;5200403;28;20080;-78
2022/05/12 10:26:42;;;;;;;2.42;0.77;;;;;;;21.20;61.17;100887.91;5213242;28;20037;-76
2022/05/12 10:29:31;;;;;;;3.08;0.85;;;;;;;21.48;61.16;100889.34;5218914;28;20030;-76
2022/05/12 10:32:04;;;;;;;3.65;1.00;;;;;;;20.91;60.35;100891.00;5221209;28;20033;-76
2022/05/12 10:34:35;;;;;;;2.15;0.50;;;;;;;21.43;60.54;100881.69;5218022;28;20037;-78
2022/05/12 10:37:10;;;;;;;4.10;0.67;;;;;;;21.42;59.08;100880.00;5227975;28;20310;-77
2022/05/12 10:39:50;;;;;;;2.55;0.90;;;;;;;21.19;59.63;100874.69;5226189;28;20025;-76
2022/05/12 10:42:45;;;;;;;2.83;0.80;;;;;;;21.36;60.49;100887.59;5225106;28;20071;-76
2022/05/12 10:45:34;;;;;;;2.55;0.85;;;;;;;21.39;59.42;100890.03;5222884;28;20032;-76
2022/05/12 10:48:22;;;;;;;1.90;0.63;;;;;;;21.25;58.75;100891.06;5218992;28;20530;-75
2022/05/12 10:51:02;;;;;;;2.42;0.70;;;;;;;20.86;58.08;100888.69;5224292;28;20403;-77
2022/05/12 10:53:50;;;;;;;1.33;0.60;;;;;;;20.16;58.61;100891.09;5206475;28;20028;-76
2022/05/12 10:56:26;;;;;;;2.72;0.80;;;;;;;20.34;59.38;100894.28;5214901;28;20060;-76
2022/05/12 10:59:11;;;;;;;4.68;0.90;;;;;;;20.21;58.74;100893.44;5218960;28;20017;-76
2022/05/12 11:02:08;;;;;;;1.98;0.65;;;;;;;20.50;59.63;100889.59;5220763;28;20089;-76
2022/05/12 11:04:50;;;;;;;2.60;0.70;;;;;;;20.63;58.18;100896.56;5220584;28;20112;-75
2022/05/12 11:07:45;;;;;;;2.00;0.47;;;;;;;20.02;57.91;100901.88;5225284;28;20039;-76
2022/05/12 11:10:23;;;;;;;2.08;0.47;;;;;;;20.08;58.72;100882.84;5203571;28;20030;-76
2022/05/12 11:13:01;;;;;;;1.67;0.60;;;;;;;20.30;58.32;100882.19;5224341;28;20068;-77
2022/05/12 11:15:45;;;;;;;2.58;0.60;;;;;;;20.87;58.21;100878.91;5226607;28;20093;-77
2022/05/12 11:18:23;;;;;;;6.28;0.80;;;;;;;20.91;56.50;100885.69;5220761;28;20040;-77
2022/05/12 11:21:08;;;;;;;2.53;0.80;;;;;;;20.73;57.68;100879.03;5225318;28;20021;-76
2022/05/12 11:23:47;;;;;;;2.17;0.60;;;;;;;21.01;57.71;100866.28;5218985;28;20033;-76
2022/05/12 11:26:17;;;;;;;3.00;0.80;;;;;;;21.40;57.96;100881.94;5195414;28;20530;-77
2022/05/12 11:32:17;;;;;;;2.08;0.57;;;;;;;21.43;57.60;100875.53;5222387;28;20041;-77
2022/05/12 11:34:52;;;;;;;2.25;0.70;;;;;;;21.31;56.61;100868.47;5221157;28;20026;-77
2022/05/12 11:37:43;;;;;;;2.67;0.55;;;;;;;20.79;56.89;100886.53;5222956;28;20135;-76
2022/05/12 11:40:40;;;;;;;2.03;0.50;;;;;;;20.06;55.96;100895.38;5207404;28;20037;-77
2022/05/12 11:46:44;;;;;;;3.30;0.50;;;;;;;20.36;57.78;100889.72;5219619;28;20481;-76
2022/05/12 11:49:40;;;;;;;3.60;0.70;;;;;;;21.09;57.30;100887.81;5223103;28;20091;-76
2022/05/12 11:52:35;;;;;;;4.03;0.93;;;;;;;21.14;57.18;100883.03;5222464;28;20029;-76
2022/05/12 11:55:35;;;;;;;4.65;0.90;;;;;;;20.80;57.02;100873.16;5213848;28;20489;-77
2022/05/12 11:58:13;;;;;;;6.97;1.38;;;;;;;20.96;57.59;100878.22;5214339;28;20025;-77
2022/05/12 12:00:54;;;;;;;26.58;7.60;;;;;;;21.20;59.38;100873.78;5220955;28;20033;-77
2022/05/12 12:03:24;;;;;;;4.80;0.73;;;;;;;21.16;57.71;100874.94;5224860;28;20080;-76
2022/05/12 12:05:54;;;;;;;3.30;0.90;;;;;;;20.27;58.16;100877.94;5226148;28;20033;-76
2022/05/12 12:08:31;;;;;;;2.10;0.70;;;;;;;20.32;57.67;100875.81;5223029;28;20026;-78
2022/05/12 12:11:13;;;;;;;2.08;0.55;;;;;;;20.51;56.87;100875.34;5225229;28;20017;-77
2022/05/12 12:13:49;;;;;;;1.25;0.50;;;;;;;20.71;56.84;100867.66;5220885;28;20029;-76
2022/05/12 12:16:25;;;;;;;1.90;0.50;;;;;;;20.50;57.26;100878.97;5226032;28;20111;-76
2022/05/12 12:19:01;;;;;;;3.38;0.80;;;;;;;20.40;55.31;100881.44;5227324;28;20056;-76
2022/05/12 12:21:40;;;;;;;1.60;0.60;;;;;;;20.55;55.92;100877.69;5224116;28;20686;-76
2022/05/12 12:24:19;;;;;;;2.45;0.60;;;;;;;20.56;56.07;100878.53;5200028;28;20061;-77